sensor_id;sensor_type;location;lat;lon;timestamp;P1;durP1;ratioP1;P2;durP2;ratioP2
56299;SDS011;42209;6.376;-10.782;2023-08-21T00:01:06;3.42;;;3.10;;
56299;SDS011;42209;6.376;-10.782;2023-08-21T00:03:34;3.30;;;3.00;;
56299;SDS011;42209;6.376;-10.782;2023-08-21T00:06:03;5.38;;;3.83;;
56299;SDS011;42209;6.376;-10.782;2023-08-21T00:08:31;5.43;;;3.80;;
56299;SDS011;42209;6.376;-10.782;2023-08-21T00:11:00;4.15;;;3.75;;
56299;SDS011;42209;6.376;-10.782;2023-08-21T00:13:28;4.18;;;3.75;;
56299;SDS011;42209;6.376;-10.782;2023-08-21T00:15:57;4.82;;;3.05;;
56299;SDS011;42209;6.376;-10.782;2023-08-21T00:18:25;7.72;;;3.55;;
56299;SDS011;42209;6.376;-10.782;2023-08-21T00:20:53;4.20;;;3.67;;
56299;SDS011;42209;6.376;-10.782;2023-08-21T00:23:22;4.88;;;4.43;;
56299;SDS011;42209;6.376;-10.782;2023-08-21T00:25:50;4.05;;;3.03;;
56299;SDS011;42209;6.376;-10.782;2023-08-21T00:28:18;3.78;;;3.28;;
56299;SDS011;42209;6.376;-10.782;2023-08-21T00:30:47;4.30;;;3.38;;
56299;SDS011;42209;6.376;-10.782;2023-08-21T00:33:15;7.10;;;3.08;;
56299;SDS011;42209;6.376;-10.782;2023-08-21T00:38:12;3.63;;;3.25;;
56299;SDS011;42209;6.376;-10.782;2023-08-21T00:43:08;3.08;;;2.67;;
56299;SDS011;42209;6.376;-10.782;2023-08-21T00:45:37;2.95;;;2.60;;
56299;SDS011;42209;6.376;-10.782;2023-08-21T00:48:12;3.38;;;2.78;;
56299;SDS011;42209;6.376;-10.782;2023-08-21T00:50:41;3.60;;;2.85;;
56299;SDS011;42209;6.376;-10.782;2023-08-21T00:53:10;3.33;;;2.22;;
56299;SDS011;42209;6.376;-10.782;2023-08-21T00:55:39;3.70;;;2.70;;
56299;SDS011;42209;6.376;-10.782;2023-08-21T00:58:11;4.38;;;3.60;;
56299;SDS011;42209;6.376;-10.782;2023-08-21T01:00:42;3.42;;;3.00;;
56299;SDS011;42209;6.376;-10.782;2023-08-21T01:03:13;3.97;;;3.00;;
56299;SDS011;42209;6.376;-10.782;2023-08-21T01:05:41;3.28;;;2.70;;
56299;SDS011;42209;6.376;-10.782;2023-08-21T01:10:56;3.35;;;2.97;;
56299;SDS011;42209;6.376;-10.782;2023-08-21T01:16:16;2.78;;;2.58;;
56299;SDS011;42209;6.376;-10.782;2023-08-21T01:18:45;4.25;;;2.53;;
56299;SDS011;42209;6.376;-10.782;2023-08-21T01:21:16;3.28;;;2.53;;
56299;SDS011;42209;6.376;-10.782;2023-08-21T01:23:45;2.65;;;2.15;;
56299;SDS011;42209;6.376;-10.782;2023-08-21T01:26:14;2.67;;;1.83;;
56299;SDS011;42209;6.376;-10.782;2023-08-21T01:28:42;3.85;;;2.38;;
56299;SDS011;42209;6.376;-10.782;2023-08-21T01:33:50;3.60;;;2.13;;
56299;SDS011;42209;6.376;-10.782;2023-08-21T01:36:21;2.97;;;2.60;;
56299;SDS011;42209;6.376;-10.782;2023-08-21T01:38:51;2.65;;;2.13;;
56299;SDS011;42209;6.376;-10.782;2023-08-21T01:41:23;2.78;;;2.55;;
56299;SDS011;42209;6.376;-10.782;2023-08-21T01:43:53;3.08;;;2.30;;
56299;SDS011;42209;6.376;-10.782;2023-08-21T01:46:21;2.75;;;2.42;;
56299;SDS011;42209;6.376;-10.782;2023-08-21T01:48:50;2.88;;;2.15;;
56299;SDS011;42209;6.376;-10.782;2023-08-21T01:51:19;3.17;;;2.25;;
56299;SDS011;42209;6.376;-10.782;2023-08-21T01:53:47;4.00;;;2.10;;
56299;SDS011;42209;6.376;-10.782;2023-08-21T01:56:16;3.83;;;2.63;;
56299;SDS011;42209;6.376;-10.782;2023-08-21T01:58:44;2.38;;;2.00;;
56299;SDS011;42209;6.376;-10.782;2023-08-21T02:01:13;2.47;;;2.00;;
56299;SDS011;42209;6.376;-10.782;2023-08-21T02:03:41;2.15;;;1.67;;
56299;SDS011;42209;6.376;-10.782;2023-08-21T02:06:10;3.50;;;1.58;;
56299;SDS011;42209;6.376;-10.782;2023-08-21T02:08:39;2.45;;;2.03;;
56299;SDS011;42209;6.376;-10.782;2023-08-21T02:11:07;2.45;;;1.75;;
56299;SDS011;42209;6.376;-10.782;2023-08-21T02:13:36;1.73;;;1.30;;
56299;SDS011;42209;6.376;-10.782;2023-08-21T02:16:04;2.83;;;1.90;;
56299;SDS011;42209;6.376;-10.782;2023-08-21T02:18:32;1.48;;;1.02;;
56299;SDS011;42209;6.376;-10.782;2023-08-21T02:21:01;4.10;;;1.83;;
56299;SDS011;42209;6.376;-10.782;2023-08-21T02:23:29;2.95;;;1.50;;
56299;SDS011;42209;6.376;-10.782;2023-08-21T02:25:58;2.53;;;1.85;;
56299;SDS011;42209;6.376;-10.782;2023-08-21T02:28:26;4.30;;;2.40;;
56299;SDS011;42209;6.376;-10.782;2023-08-21T02:30:55;3.10;;;2.10;;
56299;SDS011;42209;6.376;-10.782;2023-08-21T02:33:23;2.00;;;1.40;;
56299;SDS011;42209;6.376;-10.782;2023-08-21T02:35:51;2.28;;;2.05;;
56299;SDS011;42209;6.376;-10.782;2023-08-21T02:38:20;2.58;;;1.52;;
56299;SDS011;42209;6.376;-10.782;2023-08-21T02:40:48;3.60;;;1.63;;
56299;SDS011;42209;6.376;-10.782;2023-08-21T02:43:17;2.90;;;1.55;;
56299;SDS011;42209;6.376;-10.782;2023-08-21T02:45:47;2.75;;;1.88;;
56299;SDS011;42209;6.376;-10.782;2023-08-21T02:48:15;2.63;;;1.52;;
56299;SDS011;42209;6.376;-10.782;2023-08-21T02:53:12;2.13;;;1.42;;
56299;SDS011;42209;6.376;-10.782;2023-08-21T02:55:40;2.38;;;1.67;;
56299;SDS011;42209;6.376;-10.782;2023-08-21T02:58:12;2.30;;;1.83;;
56299;SDS011;42209;6.376;-10.782;2023-08-21T03:00:40;2.15;;;1.38;;
56299;SDS011;42209;6.376;-10.782;2023-08-21T03:03:08;3.30;;;2.33;;
56299;SDS011;42209;6.376;-10.782;2023-08-21T03:05:37;2.85;;;1.80;;
56299;SDS011;42209;6.376;-10.782;2023-08-21T03:08:06;2.28;;;1.92;;
56299;SDS011;42209;6.376;-10.782;2023-08-21T03:10:34;1.98;;;1.58;;
56299;SDS011;42209;6.376;-10.782;2023-08-21T03:13:03;2.25;;;1.98;;
56299;SDS011;42209;6.376;-10.782;2023-08-21T03:15:31;3.38;;;1.80;;
56299;SDS011;42209;6.376;-10.782;2023-08-21T03:18:00;4.57;;;2.47;;
56299;SDS011;42209;6.376;-10.782;2023-08-21T03:20:28;1.83;;;1.13;;
56299;SDS011;42209;6.376;-10.782;2023-08-21T03:22:56;1.95;;;1.45;;
56299;SDS011;42209;6.376;-10.782;2023-08-21T03:25:25;2.45;;;1.85;;
56299;SDS011;42209;6.376;-10.782;2023-08-21T03:27:54;1.70;;;1.02;;
56299;SDS011;42209;6.376;-10.782;2023-08-21T03:30:23;2.33;;;1.17;;
56299;SDS011;42209;6.376;-10.782;2023-08-21T03:32:52;1.58;;;1.10;;
56299;SDS011;42209;6.376;-10.782;2023-08-21T03:35:21;2.13;;;1.10;;
56299;SDS011;42209;6.376;-10.782;2023-08-21T03:37:49;2.42;;;1.50;;
56299;SDS011;42209;6.376;-10.782;2023-08-21T03:40:18;2.55;;;1.42;;
56299;SDS011;42209;6.376;-10.782;2023-08-21T03:42:48;2.58;;;1.27;;
56299;SDS011;42209;6.376;-10.782;2023-08-21T03:45:17;2.22;;;1.45;;
56299;SDS011;42209;6.376;-10.782;2023-08-21T03:47:45;2.40;;;1.50;;
56299;SDS011;42209;6.376;-10.782;2023-08-21T03:50:18;1.95;;;1.17;;
56299;SDS011;42209;6.376;-10.782;2023-08-21T03:52:47;2.03;;;1.70;;
56299;SDS011;42209;6.376;-10.782;2023-08-21T03:55:16;2.50;;;1.60;;
56299;SDS011;42209;6.376;-10.782;2023-08-21T03:57:44;3.30;;;1.48;;
56299;SDS011;42209;6.376;-10.782;2023-08-21T04:00:13;2.40;;;1.52;;
56299;SDS011;42209;6.376;-10.782;2023-08-21T04:05:10;2.72;;;1.20;;
56299;SDS011;42209;6.376;-10.782;2023-08-21T04:07:38;1.58;;;1.00;;
56299;SDS011;42209;6.376;-10.782;2023-08-21T04:10:07;1.92;;;1.10;;
56299;SDS011;42209;6.376;-10.782;2023-08-21T04:12:35;2.03;;;1.10;;
56299;SDS011;42209;6.376;-10.782;2023-08-21T04:15:04;1.55;;;1.10;;
56299;SDS011;42209;6.376;-10.782;2023-08-21T04:17:34;1.80;;;0.90;;
56299;SDS011;42209;6.376;-10.782;2023-08-21T04:20:03;2.20;;;1.40;;
56299;SDS011;42209;6.376;-10.782;2023-08-21T04:22:33;2.00;;;1.48;;
56299;SDS011;42209;6.376;-10.782;2023-08-21T04:25:02;1.30;;;1.20;;
56299;SDS011;42209;6.376;-10.782;2023-08-21T04:27:30;2.05;;;1.58;;
56299;SDS011;42209;6.376;-10.782;2023-08-21T04:29:59;2.28;;;1.50;;
56299;SDS011;42209;6.376;-10.782;2023-08-21T04:32:27;1.65;;;1.23;;
56299;SDS011;42209;6.376;-10.782;2023-08-21T04:34:56;1.42;;;1.10;;
56299;SDS011;42209;6.376;-10.782;2023-08-21T04:37:24;1.58;;;0.93;;
56299;SDS011;42209;6.376;-10.782;2023-08-21T04:39:53;1.30;;;0.80;;
56299;SDS011;42209;6.376;-10.782;2023-08-21T04:44:50;1.20;;;1.02;;
56299;SDS011;42209;6.376;-10.782;2023-08-21T04:47:22;1.65;;;1.20;;
56299;SDS011;42209;6.376;-10.782;2023-08-21T04:49:57;1.95;;;1.10;;
56299;SDS011;42209;6.376;-10.782;2023-08-21T04:52:28;1.88;;;0.90;;
56299;SDS011;42209;6.376;-10.782;2023-08-21T04:54:58;1.95;;;1.20;;
56299;SDS011;42209;6.376;-10.782;2023-08-21T04:57:29;1.50;;;1.10;;
56299;SDS011;42209;6.376;-10.782;2023-08-21T04:59:57;2.00;;;1.25;;
56299;SDS011;42209;6.376;-10.782;2023-08-21T05:02:33;1.70;;;0.90;;
56299;SDS011;42209;6.376;-10.782;2023-08-21T05:05:02;1.73;;;0.77;;
56299;SDS011;42209;6.376;-10.782;2023-08-21T05:07:31;2.03;;;1.02;;
56299;SDS011;42209;6.376;-10.782;2023-08-21T05:10:01;2.72;;;1.10;;
56299;SDS011;42209;6.376;-10.782;2023-08-21T05:12:33;2.35;;;1.33;;
56299;SDS011;42209;6.376;-10.782;2023-08-21T05:15:03;2.25;;;1.23;;
56299;SDS011;42209;6.376;-10.782;2023-08-21T05:17:31;2.53;;;1.27;;
56299;SDS011;42209;6.376;-10.782;2023-08-21T05:20:00;1.63;;;1.08;;
56299;SDS011;42209;6.376;-10.782;2023-08-21T05:22:29;2.20;;;1.60;;
56299;SDS011;42209;6.376;-10.782;2023-08-21T05:27:25;3.35;;;1.08;;
56299;SDS011;42209;6.376;-10.782;2023-08-21T05:29:55;3.30;;;1.00;;
56299;SDS011;42209;6.376;-10.782;2023-08-21T05:32:23;2.03;;;1.23;;
56299;SDS011;42209;6.376;-10.782;2023-08-21T05:34:52;2.85;;;1.52;;
56299;SDS011;42209;6.376;-10.782;2023-08-21T05:37:21;2.17;;;0.90;;
56299;SDS011;42209;6.376;-10.782;2023-08-21T05:39:49;1.90;;;1.38;;
56299;SDS011;42209;6.376;-10.782;2023-08-21T05:44:47;1.95;;;1.15;;
56299;SDS011;42209;6.376;-10.782;2023-08-21T05:47:16;1.60;;;1.00;;
56299;SDS011;42209;6.376;-10.782;2023-08-21T05:49:44;2.22;;;1.48;;
56299;SDS011;42209;6.376;-10.782;2023-08-21T05:52:13;1.92;;;1.40;;
56299;SDS011;42209;6.376;-10.782;2023-08-21T05:54:41;3.63;;;1.52;;
56299;SDS011;42209;6.376;-10.782;2023-08-21T05:59:42;3.13;;;1.60;;
56299;SDS011;42209;6.376;-10.782;2023-08-21T06:02:12;1.95;;;1.25;;
56299;SDS011;42209;6.376;-10.782;2023-08-21T06:04:42;1.63;;;0.85;;
56299;SDS011;42209;6.376;-10.782;2023-08-21T06:07:10;4.05;;;1.17;;
56299;SDS011;42209;6.376;-10.782;2023-08-21T06:09:39;2.38;;;1.20;;
56299;SDS011;42209;6.376;-10.782;2023-08-21T06:12:08;2.03;;;1.20;;
56299;SDS011;42209;6.376;-10.782;2023-08-21T06:14:39;3.22;;;1.33;;
56299;SDS011;42209;6.376;-10.782;2023-08-21T06:17:08;1.98;;;1.20;;
56299;SDS011;42209;6.376;-10.782;2023-08-21T06:19:37;2.38;;;1.55;;
56299;SDS011;42209;6.376;-10.782;2023-08-21T06:22:05;2.30;;;1.40;;
56299;SDS011;42209;6.376;-10.782;2023-08-21T06:24:34;2.95;;;1.60;;
56299;SDS011;42209;6.376;-10.782;2023-08-21T06:27:05;2.08;;;1.40;;
56299;SDS011;42209;6.376;-10.782;2023-08-21T06:29:35;1.48;;;1.23;;
56299;SDS011;42209;6.376;-10.782;2023-08-21T06:32:04;2.13;;;1.10;;
56299;SDS011;42209;6.376;-10.782;2023-08-21T06:37:00;1.80;;;1.48;;
56299;SDS011;42209;6.376;-10.782;2023-08-21T06:39:29;2.63;;;1.42;;
56299;SDS011;42209;6.376;-10.782;2023-08-21T06:41:58;2.35;;;1.17;;
56299;SDS011;42209;6.376;-10.782;2023-08-21T06:44:33;2.03;;;1.52;;
56299;SDS011;42209;6.376;-10.782;2023-08-21T06:47:01;2.13;;;1.45;;
56299;SDS011;42209;6.376;-10.782;2023-08-21T06:49:30;3.22;;;1.77;;
56299;SDS011;42209;6.376;-10.782;2023-08-21T06:51:59;3.13;;;1.35;;
56299;SDS011;42209;6.376;-10.782;2023-08-21T06:54:27;3.90;;;1.95;;
56299;SDS011;42209;6.376;-10.782;2023-08-21T06:56:55;4.22;;;1.55;;
56299;SDS011;42209;6.376;-10.782;2023-08-21T06:59:24;2.90;;;1.70;;
56299;SDS011;42209;6.376;-10.782;2023-08-21T07:01:52;2.70;;;1.33;;
56299;SDS011;42209;6.376;-10.782;2023-08-21T07:04:21;3.47;;;1.40;;
56299;SDS011;42209;6.376;-10.782;2023-08-21T07:06:49;1.88;;;1.10;;
56299;SDS011;42209;6.376;-10.782;2023-08-21T07:09:18;2.25;;;1.40;;
56299;SDS011;42209;6.376;-10.782;2023-08-21T07:11:46;1.75;;;1.38;;
56299;SDS011;42209;6.376;-10.782;2023-08-21T07:16:43;6.10;;;1.60;;
56299;SDS011;42209;6.376;-10.782;2023-08-21T07:21:39;2.08;;;1.00;;
56299;SDS011;42209;6.376;-10.782;2023-08-21T07:24:08;2.75;;;1.55;;
56299;SDS011;42209;6.376;-10.782;2023-08-21T07:26:37;3.28;;;2.05;;
56299;SDS011;42209;6.376;-10.782;2023-08-21T07:29:05;9.27;;;2.38;;
56299;SDS011;42209;6.376;-10.782;2023-08-21T07:31:33;6.13;;;2.65;;
56299;SDS011;42209;6.376;-10.782;2023-08-21T07:34:02;4.15;;;2.05;;
56299;SDS011;42209;6.376;-10.782;2023-08-21T07:36:31;7.82;;;2.78;;
56299;SDS011;42209;6.376;-10.782;2023-08-21T07:39:00;5.68;;;2.67;;
56299;SDS011;42209;6.376;-10.782;2023-08-21T07:41:28;7.93;;;2.72;;
56299;SDS011;42209;6.376;-10.782;2023-08-21T07:43:57;5.38;;;2.65;;
56299;SDS011;42209;6.376;-10.782;2023-08-21T07:46:25;5.43;;;2.78;;
56299;SDS011;42209;6.376;-10.782;2023-08-21T07:48:53;4.53;;;1.80;;
56299;SDS011;42209;6.376;-10.782;2023-08-21T07:51:22;3.95;;;1.67;;
56299;SDS011;42209;6.376;-10.782;2023-08-21T07:53:50;5.80;;;2.35;;
56299;SDS011;42209;6.376;-10.782;2023-08-21T07:56:18;5.35;;;1.90;;
56299;SDS011;42209;6.376;-10.782;2023-08-21T07:58:47;5.07;;;2.35;;
56299;SDS011;42209;6.376;-10.782;2023-08-21T08:01:15;4.72;;;2.67;;
56299;SDS011;42209;6.376;-10.782;2023-08-21T08:03:44;7.88;;;2.58;;
56299;SDS011;42209;6.376;-10.782;2023-08-21T08:06:13;6.20;;;2.20;;
56299;SDS011;42209;6.376;-10.782;2023-08-21T08:11:09;9.27;;;3.17;;
56299;SDS011;42209;6.376;-10.782;2023-08-21T08:13:38;7.20;;;3.22;;
56299;SDS011;42209;6.376;-10.782;2023-08-21T08:16:06;5.93;;;2.85;;
56299;SDS011;42209;6.376;-10.782;2023-08-21T08:18:35;6.47;;;2.88;;
56299;SDS011;42209;6.376;-10.782;2023-08-21T08:21:03;6.65;;;3.00;;
56299;SDS011;42209;6.376;-10.782;2023-08-21T08:23:32;7.15;;;3.03;;
56299;SDS011;42209;6.376;-10.782;2023-08-21T08:26:01;6.75;;;2.80;;
56299;SDS011;42209;6.376;-10.782;2023-08-21T08:28:30;6.57;;;2.25;;
56299;SDS011;42209;6.376;-10.782;2023-08-21T08:30:59;6.07;;;2.42;;
56299;SDS011;42209;6.376;-10.782;2023-08-21T08:33:27;5.50;;;2.47;;
56299;SDS011;42209;6.376;-10.782;2023-08-21T08:35:56;4.05;;;2.45;;
56299;SDS011;42209;6.376;-10.782;2023-08-21T08:40:53;5.43;;;2.17;;
56299;SDS011;42209;6.376;-10.782;2023-08-21T08:43:22;4.03;;;2.10;;
56299;SDS011;42209;6.376;-10.782;2023-08-21T08:45:56;5.05;;;2.40;;
56299;SDS011;42209;6.376;-10.782;2023-08-21T08:48:26;5.80;;;2.63;;
56299;SDS011;42209;6.376;-10.782;2023-08-21T08:53:25;6.25;;;2.55;;
56299;SDS011;42209;6.376;-10.782;2023-08-21T08:55:54;4.18;;;2.10;;
56299;SDS011;42209;6.376;-10.782;2023-08-21T08:58:24;4.07;;;2.00;;
56299;SDS011;42209;6.376;-10.782;2023-08-21T09:00:53;5.07;;;2.65;;
56299;SDS011;42209;6.376;-10.782;2023-08-21T09:03:21;4.63;;;2.28;;
56299;SDS011;42209;6.376;-10.782;2023-08-21T09:05:50;4.47;;;1.92;;
56299;SDS011;42209;6.376;-10.782;2023-08-21T09:10:47;3.22;;;1.63;;
56299;SDS011;42209;6.376;-10.782;2023-08-21T09:13:16;5.18;;;2.35;;
56299;SDS011;42209;6.376;-10.782;2023-08-21T09:15:47;4.25;;;2.35;;
56299;SDS011;42209;6.376;-10.782;2023-08-21T09:18:20;3.67;;;2.00;;
56299;SDS011;42209;6.376;-10.782;2023-08-21T09:20:49;6.93;;;2.60;;
56299;SDS011;42209;6.376;-10.782;2023-08-21T09:25:47;3.47;;;2.00;;
56299;SDS011;42209;6.376;-10.782;2023-08-21T09:28:20;4.72;;;2.58;;
56299;SDS011;42209;6.376;-10.782;2023-08-21T09:30:59;5.13;;;2.22;;
56299;SDS011;42209;6.376;-10.782;2023-08-21T09:35:56;5.28;;;2.25;;
56299;SDS011;42209;6.376;-10.782;2023-08-21T09:43:23;3.63;;;2.08;;
56299;SDS011;42209;6.376;-10.782;2023-08-21T09:45:52;5.68;;;2.53;;
56299;SDS011;42209;6.376;-10.782;2023-08-21T09:48:23;3.80;;;2.10;;
56299;SDS011;42209;6.376;-10.782;2023-08-21T09:50:54;4.35;;;2.60;;
56299;SDS011;42209;6.376;-10.782;2023-08-21T09:53:23;5.88;;;2.70;;
56299;SDS011;42209;6.376;-10.782;2023-08-21T09:55:54;4.65;;;2.00;;
56299;SDS011;42209;6.376;-10.782;2023-08-21T09:58:23;3.58;;;2.28;;
56299;SDS011;42209;6.376;-10.782;2023-08-21T10:00:52;3.42;;;2.33;;
56299;SDS011;42209;6.376;-10.782;2023-08-21T10:03:25;3.67;;;2.38;;
56299;SDS011;42209;6.376;-10.782;2023-08-21T10:05:56;4.57;;;2.45;;
56299;SDS011;42209;6.376;-10.782;2023-08-21T10:08:26;4.13;;;1.85;;
56299;SDS011;42209;6.376;-10.782;2023-08-21T10:10:56;4.32;;;2.67;;
56299;SDS011;42209;6.376;-10.782;2023-08-21T10:13:29;3.22;;;1.80;;
56299;SDS011;42209;6.376;-10.782;2023-08-21T10:15:57;5.07;;;2.65;;
56299;SDS011;42209;6.376;-10.782;2023-08-21T10:23:50;4.25;;;2.47;;
56299;SDS011;42209;6.376;-10.782;2023-08-21T10:26:22;5.43;;;2.92;;
56299;SDS011;42209;6.376;-10.782;2023-08-21T10:29:03;5.40;;;3.13;;
56299;SDS011;42209;6.376;-10.782;2023-08-21T10:32:06;4.45;;;3.03;;
56299;SDS011;42209;6.376;-10.782;2023-08-21T10:34:35;7.97;;;3.88;;
56299;SDS011;42209;6.376;-10.782;2023-08-21T10:37:06;6.20;;;3.58;;
56299;SDS011;42209;6.376;-10.782;2023-08-21T10:39:39;4.57;;;2.97;;
56299;SDS011;42209;6.376;-10.782;2023-08-21T10:42:40;5.25;;;3.75;;
56299;SDS011;42209;6.376;-10.782;2023-08-21T10:45:12;5.75;;;3.63;;
56299;SDS011;42209;6.376;-10.782;2023-08-21T10:47:41;5.50;;;3.90;;
56299;SDS011;42209;6.376;-10.782;2023-08-21T10:50:09;6.13;;;3.63;;
56299;SDS011;42209;6.376;-10.782;2023-08-21T10:52:42;4.80;;;3.08;;
56299;SDS011;42209;6.376;-10.782;2023-08-21T10:55:11;6.30;;;3.40;;
56299;SDS011;42209;6.376;-10.782;2023-08-21T10:57:40;5.22;;;3.58;;
56299;SDS011;42209;6.376;-10.782;2023-08-21T11:00:10;6.05;;;3.70;;
56299;SDS011;42209;6.376;-10.782;2023-08-21T11:02:44;5.78;;;4.00;;
56299;SDS011;42209;6.376;-10.782;2023-08-21T11:05:14;5.43;;;3.53;;
56299;SDS011;42209;6.376;-10.782;2023-08-21T11:07:44;4.72;;;3.20;;
56299;SDS011;42209;6.376;-10.782;2023-08-21T11:10:14;5.25;;;3.38;;
56299;SDS011;42209;6.376;-10.782;2023-08-21T11:12:51;4.57;;;3.28;;
56299;SDS011;42209;6.376;-10.782;2023-08-21T11:15:21;5.43;;;3.70;;
56299;SDS011;42209;6.376;-10.782;2023-08-21T11:17:51;4.47;;;3.15;;
56299;SDS011;42209;6.376;-10.782;2023-08-21T11:20:28;6.13;;;3.22;;
56299;SDS011;42209;6.376;-10.782;2023-08-21T11:23:01;4.55;;;3.65;;
56299;SDS011;42209;6.376;-10.782;2023-08-21T11:25:31;6.28;;;3.10;;
56299;SDS011;42209;6.376;-10.782;2023-08-21T11:28:00;6.60;;;4.05;;
56299;SDS011;42209;6.376;-10.782;2023-08-21T11:30:30;6.50;;;3.97;;
56299;SDS011;42209;6.376;-10.782;2023-08-21T11:33:09;6.13;;;4.13;;
56299;SDS011;42209;6.376;-10.782;2023-08-21T11:35:40;9.00;;;4.72;;
56299;SDS011;42209;6.376;-10.782;2023-08-21T11:38:18;5.80;;;3.83;;
56299;SDS011;42209;6.376;-10.782;2023-08-21T11:41:06;6.35;;;3.70;;
56299;SDS011;42209;6.376;-10.782;2023-08-21T11:43:37;6.03;;;3.80;;
56299;SDS011;42209;6.376;-10.782;2023-08-21T11:46:07;5.25;;;4.30;;
56299;SDS011;42209;6.376;-10.782;2023-08-21T11:48:37;5.07;;;4.00;;
56299;SDS011;42209;6.376;-10.782;2023-08-21T11:51:06;5.43;;;4.68;;
56299;SDS011;42209;6.376;-10.782;2023-08-21T11:53:39;5.88;;;4.55;;
56299;SDS011;42209;6.376;-10.782;2023-08-21T11:56:09;7.20;;;4.97;;
56299;SDS011;42209;6.376;-10.782;2023-08-21T11:58:40;4.30;;;3.85;;
56299;SDS011;42209;6.376;-10.782;2023-08-21T12:01:10;8.18;;;5.22;;
56299;SDS011;42209;6.376;-10.782;2023-08-21T12:03:44;6.45;;;4.90;;
56299;SDS011;42209;6.376;-10.782;2023-08-21T12:06:22;7.50;;;4.63;;
56299;SDS011;42209;6.376;-10.782;2023-08-21T12:08:52;5.68;;;4.38;;
56299;SDS011;42209;6.376;-10.782;2023-08-21T12:11:21;6.50;;;5.13;;
56299;SDS011;42209;6.376;-10.782;2023-08-21T12:13:50;5.53;;;4.60;;
56299;SDS011;42209;6.376;-10.782;2023-08-21T12:16:18;6.70;;;5.05;;
56299;SDS011;42209;6.376;-10.782;2023-08-21T12:18:47;6.85;;;4.68;;
56299;SDS011;42209;6.376;-10.782;2023-08-21T12:21:16;6.13;;;4.60;;
56299;SDS011;42209;6.376;-10.782;2023-08-21T12:23:45;5.72;;;4.68;;
56299;SDS011;42209;6.376;-10.782;2023-08-21T12:26:13;4.90;;;4.50;;
56299;SDS011;42209;6.376;-10.782;2023-08-21T12:32:44;5.80;;;5.03;;
56299;SDS011;42209;6.376;-10.782;2023-08-21T12:35:14;8.30;;;4.80;;
56299;SDS011;42209;6.376;-10.782;2023-08-21T12:37:42;5.07;;;4.57;;
56299;SDS011;42209;6.376;-10.782;2023-08-21T12:40:11;7.95;;;5.18;;
56299;SDS011;42209;6.376;-10.782;2023-08-21T12:42:39;5.63;;;5.07;;
56299;SDS011;42209;6.376;-10.782;2023-08-21T12:45:07;5.32;;;4.82;;
56299;SDS011;42209;6.376;-10.782;2023-08-21T12:47:36;6.03;;;4.63;;
56299;SDS011;42209;6.376;-10.782;2023-08-21T12:50:05;6.03;;;5.30;;
56299;SDS011;42209;6.376;-10.782;2023-08-21T12:52:37;7.82;;;5.18;;
56299;SDS011;42209;6.376;-10.782;2023-08-21T12:55:20;6.32;;;5.03;;
56299;SDS011;42209;6.376;-10.782;2023-08-21T12:57:48;5.50;;;4.28;;
56299;SDS011;42209;6.376;-10.782;2023-08-21T13:00:17;4.85;;;4.05;;
56299;SDS011;42209;6.376;-10.782;2023-08-21T13:02:45;5.55;;;4.10;;
56299;SDS011;42209;6.376;-10.782;2023-08-21T13:05:14;5.32;;;3.78;;
56299;SDS011;42209;6.376;-10.782;2023-08-21T13:07:43;5.45;;;3.80;;
56299;SDS011;42209;6.376;-10.782;2023-08-21T13:10:11;5.68;;;4.13;;
56299;SDS011;42209;6.376;-10.782;2023-08-21T13:12:42;6.25;;;3.58;;
56299;SDS011;42209;6.376;-10.782;2023-08-21T13:15:11;5.00;;;4.18;;
56299;SDS011;42209;6.376;-10.782;2023-08-21T13:17:42;4.85;;;3.72;;
56299;SDS011;42209;6.376;-10.782;2023-08-21T13:22:45;4.15;;;3.20;;
56299;SDS011;42209;6.376;-10.782;2023-08-21T13:25:15;4.65;;;4.20;;
56299;SDS011;42209;6.376;-10.782;2023-08-21T13:27:43;4.57;;;3.85;;
56299;SDS011;42209;6.376;-10.782;2023-08-21T13:30:12;4.47;;;4.00;;
56299;SDS011;42209;6.376;-10.782;2023-08-21T13:32:42;4.22;;;3.78;;
56299;SDS011;42209;6.376;-10.782;2023-08-21T13:35:11;5.18;;;3.80;;
56299;SDS011;42209;6.376;-10.782;2023-08-21T13:37:40;4.65;;;3.65;;
56299;SDS011;42209;6.376;-10.782;2023-08-21T13:40:09;6.72;;;3.25;;
56299;SDS011;42209;6.376;-10.782;2023-08-21T13:42:40;4.38;;;3.63;;
56299;SDS011;42209;6.376;-10.782;2023-08-21T13:45:10;4.57;;;4.05;;
56299;SDS011;42209;6.376;-10.782;2023-08-21T13:47:40;5.75;;;4.13;;
56299;SDS011;42209;6.376;-10.782;2023-08-21T13:50:10;4.13;;;3.72;;
56299;SDS011;42209;6.376;-10.782;2023-08-21T13:52:46;4.25;;;3.33;;
56299;SDS011;42209;6.376;-10.782;2023-08-21T13:55:26;4.22;;;3.30;;
56299;SDS011;42209;6.376;-10.782;2023-08-21T13:57:55;5.05;;;3.63;;
56299;SDS011;42209;6.376;-10.782;2023-08-21T14:00:23;6.28;;;3.58;;
56299;SDS011;42209;6.376;-10.782;2023-08-21T14:02:52;3.60;;;3.30;;
56299;SDS011;42209;6.376;-10.782;2023-08-21T14:05:20;4.05;;;3.63;;
56299;SDS011;42209;6.376;-10.782;2023-08-21T14:07:49;4.57;;;3.60;;
56299;SDS011;42209;6.376;-10.782;2023-08-21T14:12:48;4.43;;;3.28;;
56299;SDS011;42209;6.376;-10.782;2023-08-21T14:15:16;4.55;;;3.70;;
56299;SDS011;42209;6.376;-10.782;2023-08-21T14:17:45;4.55;;;3.10;;
56299;SDS011;42209;6.376;-10.782;2023-08-21T14:20:13;5.07;;;3.42;;
56299;SDS011;42209;6.376;-10.782;2023-08-21T14:22:42;3.72;;;3.03;;
56299;SDS011;42209;6.376;-10.782;2023-08-21T14:25:10;3.50;;;2.95;;
56299;SDS011;42209;6.376;-10.782;2023-08-21T14:27:39;4.13;;;3.33;;
56299;SDS011;42209;6.376;-10.782;2023-08-21T14:30:08;3.92;;;3.38;;
56299;SDS011;42209;6.376;-10.782;2023-08-21T14:35:05;3.53;;;3.13;;
56299;SDS011;42209;6.376;-10.782;2023-08-21T14:37:35;4.30;;;3.13;;
56299;SDS011;42209;6.376;-10.782;2023-08-21T14:40:04;5.60;;;4.28;;
56299;SDS011;42209;6.376;-10.782;2023-08-21T14:42:33;4.78;;;3.67;;
56299;SDS011;42209;6.376;-10.782;2023-08-21T14:45:03;6.55;;;4.68;;
56299;SDS011;42209;6.376;-10.782;2023-08-21T14:47:32;4.07;;;3.55;;
56299;SDS011;42209;6.376;-10.782;2023-08-21T14:50:01;4.55;;;3.90;;
56299;SDS011;42209;6.376;-10.782;2023-08-21T14:52:29;4.53;;;4.10;;
56299;SDS011;42209;6.376;-10.782;2023-08-21T14:54:58;4.03;;;3.65;;
56299;SDS011;42209;6.376;-10.782;2023-08-21T14:57:26;4.50;;;3.63;;
56299;SDS011;42209;6.376;-10.782;2023-08-21T14:59:55;4.93;;;4.25;;
56299;SDS011;42209;6.376;-10.782;2023-08-21T15:02:24;5.15;;;4.45;;
56299;SDS011;42209;6.376;-10.782;2023-08-21T15:04:53;3.75;;;3.35;;
56299;SDS011;42209;6.376;-10.782;2023-08-21T15:07:22;4.43;;;3.47;;
56299;SDS011;42209;6.376;-10.782;2023-08-21T15:09:57;4.97;;;3.45;;
56299;SDS011;42209;6.376;-10.782;2023-08-21T15:12:28;3.83;;;3.22;;
56299;SDS011;42209;6.376;-10.782;2023-08-21T15:17:25;4.32;;;3.25;;
56299;SDS011;42209;6.376;-10.782;2023-08-21T15:19:53;3.47;;;3.00;;
56299;SDS011;42209;6.376;-10.782;2023-08-21T15:22:22;3.97;;;3.33;;
56299;SDS011;42209;6.376;-10.782;2023-08-21T15:24:57;4.65;;;3.42;;
56299;SDS011;42209;6.376;-10.782;2023-08-21T15:27:25;4.53;;;3.17;;
56299;SDS011;42209;6.376;-10.782;2023-08-21T15:29:54;4.03;;;3.22;;
56299;SDS011;42209;6.376;-10.782;2023-08-21T15:32:22;3.60;;;3.20;;
56299;SDS011;42209;6.376;-10.782;2023-08-21T15:37:23;3.30;;;2.95;;
56299;SDS011;42209;6.376;-10.782;2023-08-21T15:42:20;4.07;;;3.58;;
56299;SDS011;42209;6.376;-10.782;2023-08-21T15:44:48;4.20;;;3.42;;
56299;SDS011;42209;6.376;-10.782;2023-08-21T15:47:17;4.03;;;3.22;;
56299;SDS011;42209;6.376;-10.782;2023-08-21T15:50:07;4.03;;;3.20;;
56299;SDS011;42209;6.376;-10.782;2023-08-21T15:55:04;4.28;;;3.10;;
56299;SDS011;42209;6.376;-10.782;2023-08-21T16:00:01;4.93;;;2.92;;
56299;SDS011;42209;6.376;-10.782;2023-08-21T16:02:32;3.20;;;2.90;;
56299;SDS011;42209;6.376;-10.782;2023-08-21T16:05:01;3.65;;;2.85;;
56299;SDS011;42209;6.376;-10.782;2023-08-21T16:10:00;4.65;;;3.72;;
56299;SDS011;42209;6.376;-10.782;2023-08-21T16:12:28;3.90;;;3.10;;
56299;SDS011;42209;6.376;-10.782;2023-08-21T16:17:25;3.95;;;3.15;;